Time;durP1;ratioP1;P1;durP2;ratioP2;P2;SDS_P1;SDS_P2;PMS_P1;PMS_P2;Temp;Humidity;BMP_temperature;BMP_pressure;BME280_temperature;BME280_humidity;BME280_pressure;Samples;Min_cycle;Max_cycle;Signal;HPM_P1;HPM_P2
2022/05/23 00:02:00;;;;;;;7.25;2.85;;;;;;;20.29;48.51;100639.47;5003556;28;20054;-65
2022/05/23 00:04:28;;;;;;;7.18;3.22;;;;;;;20.28;48.57;100642.50;5002569;28;20137;-66
2022/05/23 00:06:57;;;;;;;6.60;3.05;;;;;;;20.28;48.77;100643.31;5003025;28;20054;-66
2022/05/23 00:09:26;;;;;;;5.63;3.03;;;;;;;20.26;48.61;100642.78;5005289;28;20058;-66
2022/05/23 00:11:54;;;;;;;5.18;2.70;;;;;;;20.23;48.80;100648.00;5003223;28;20054;-65
2022/05/23 00:14:23;;;;;;;5.78;2.72;;;;;;;20.25;48.61;100638.44;5003117;28;20054;-65
2022/05/23 00:16:51;;;;;;;7.57;3.03;;;;;;;20.24;48.70;100636.00;5003437;28;20042;-65
2022/05/23 00:19:19;;;;;;;7.03;2.67;;;;;;;20.23;48.69;100637.09;5004478;28;20503;-66
2022/05/23 00:21:47;;;;;;;6.97;3.42;;;;;;;20.22;48.80;100641.75;5002289;28;20162;-66
2022/05/23 00:24:18;;;;;;;7.10;3.20;;;;;;;20.20;48.90;100627.56;5003096;28;20053;-66
2022/05/23 00:26:47;;;;;;;5.47;2.58;;;;;;;20.20;48.75;100632.22;4994535;28;20054;-66
2022/05/23 00:29:15;;;;;;;8.82;3.20;;;;;;;20.19;48.79;100625.94;5004755;28;20084;-65
2022/05/23 00:37:11;;;;;;;5.78;2.92;;;;;;;20.17;48.84;100627.34;5000873;28;20069;-65
2022/05/23 00:39:39;;;;;;;8.85;3.85;;;;;;;20.13;48.77;100622.47;5003174;28;20096;-66
2022/05/23 00:44:58;;;;;;;4.85;3.00;;;;;;;20.11;49.01;100612.94;5003715;28;20042;-65
2022/05/23 00:47:29;;;;;;;8.18;3.30;;;;;;;20.10;48.98;100617.59;5002469;28;20096;-65
2022/05/23 00:49:57;;;;;;;4.97;2.90;;;;;;;20.08;48.91;100608.88;5003277;28;20054;-65
2022/05/23 00:52:28;;;;;;;7.18;3.40;;;;;;;20.08;49.18;100608.88;5002036;28;20537;-66
2022/05/23 00:54:58;;;;;;;9.05;3.33;;;;;;;20.06;49.17;100604.81;5003067;28;20050;-66
2022/05/23 00:57:30;;;;;;;7.32;3.17;;;;;;;20.04;49.20;100604.31;5003236;28;20062;-66
2022/05/23 00:59:59;;;;;;;4.80;3.15;;;;;;;20.01;49.39;100600.22;4999340;28;20066;-66
2022/05/23 01:02:30;;;;;;;9.82;3.53;;;;;;;19.99;49.33;100602.44;5002257;28;20153;-65
2022/05/23 01:04:58;;;;;;;10.57;3.65;;;;;;;19.98;49.35;100603.53;5002665;28;20085;-65
2022/05/23 01:07:25;;;;;;;4.55;2.75;;;;;;;19.96;49.42;100600.28;5001327;28;20050;-65
2022/05/23 01:09:53;;;;;;;4.65;2.75;;;;;;;19.94;49.26;100602.50;5003402;28;20081;-65
2022/05/23 01:12:21;;;;;;;7.13;3.33;;;;;;;19.93;49.37;100609.06;5001723;28;20089;-65
2022/05/23 01:14:56;;;;;;;6.25;2.83;;;;;;;19.94;49.55;100624.31;5002165;28;20081;-66
2022/05/23 01:17:26;;;;;;;4.85;2.80;;;;;;;19.92;49.57;100609.34;5001481;28;20074;-65
2022/05/23 01:19:55;;;;;;;6.03;2.97;;;;;;;19.92;49.63;100612.06;5002082;28;20496;-65
2022/05/23 01:22:33;;;;;;;6.30;3.13;;;;;;;19.89;49.44;100610.75;5003179;28;20053;-66
2022/05/23 01:25:06;;;;;;;6.88;3.15;;;;;;;19.89;49.57;100599.81;5003882;28;20058;-66
2022/05/23 01:27:37;;;;;;;6.40;3.13;;;;;;;19.87;49.69;100596.56;4998867;28;20594;-66
2022/05/23 01:30:06;;;;;;;6.43;2.95;;;;;;;19.87;49.60;100598.50;5002693;28;20047;-66
2022/05/23 01:32:34;;;;;;;10.52;3.45;;;;;;;19.85;49.65;100596.06;5001622;28;20050;-63
2022/05/23 01:35:02;;;;;;;7.05;3.47;;;;;;;19.84;49.73;100594.44;5002231;28;20045;-66
2022/05/23 01:37:29;;;;;;;5.93;3.15;;;;;;;19.83;49.70;100596.34;5002147;28;20046;-64
2022/05/23 01:39:57;;;;;;;5.60;3.60;;;;;;;19.81;49.81;100601.28;5002366;28;20173;-64
2022/05/23 01:42:25;;;;;;;8.38;3.38;;;;;;;19.81;49.77;100603.19;5001265;28;20051;-65
2022/05/23 01:44:54;;;;;;;9.07;3.22;;;;;;;19.80;49.64;100602.38;5001585;28;20080;-65
2022/05/23 01:47:22;;;;;;;8.45;3.85;;;;;;;19.74;49.91;100586.34;4991321;28;20150;-65
2022/05/23 01:49:50;;;;;;;7.07;3.60;;;;;;;19.80;49.75;100602.38;5002986;28;20081;-65
2022/05/23 01:52:18;;;;;;;9.23;3.40;;;;;;;19.79;49.76;100603.47;5002771;28;20419;-65
2022/05/23 01:54:46;;;;;;;5.30;2.72;;;;;;;19.79;49.70;100602.66;5004710;28;20054;-64
2022/05/23 01:57:14;;;;;;;10.63;4.10;;;;;;;19.77;49.68;100600.22;5005665;28;20054;-65
2022/05/23 02:02:28;;;;;;;5.85;3.40;;;;;;;19.75;49.95;100577.06;5005345;28;20085;-65
2022/05/23 02:04:56;;;;;;;7.97;3.13;;;;;;;19.74;49.91;100578.19;5006339;28;20089;-64
2022/05/23 02:07:24;;;;;;;6.88;3.10;;;;;;;19.72;50.01;100581.19;5005013;28;20077;-66
2022/05/23 02:09:52;;;;;;;5.55;3.22;;;;;;;19.72;49.97;100581.19;5006180;28;20050;-65
2022/05/23 02:12:20;;;;;;;5.93;3.55;;;;;;;19.67;50.23;100570.34;5005332;28;20050;-65
2022/05/23 02:14:49;;;;;;;7.55;3.65;;;;;;;19.69;50.15;100576.31;5006549;28;20051;-64
2022/05/23 02:17:17;;;;;;;7.93;3.50;;;;;;;19.69;50.04;100572.78;5005224;28;20077;-64
2022/05/23 02:19:47;;;;;;;7.32;3.38;;;;;;;19.67;49.99;100577.72;5005939;28;20055;-65
2022/05/23 02:22:15;;;;;;;9.65;3.53;;;;;;;19.67;50.15;100575.78;5004824;28;20069;-65
2022/05/23 02:24:43;;;;;;;6.10;3.10;;;;;;;19.67;50.16;100570.34;5006849;28;20500;-65
2022/05/23 02:27:11;;;;;;;7.72;3.55;;;;;;;19.66;50.18;100571.44;5004839;28;20053;-65
2022/05/23 02:29:39;;;;;;;7.03;3.10;;;;;;;19.65;50.16;100571.72;5005599;28;20050;-65
2022/05/23 02:32:08;;;;;;;7.18;3.20;;;;;;;19.58;50.20;100552.19;5004511;28;20069;-65
2022/05/23 02:34:36;;;;;;;9.35;3.03;;;;;;;19.62;50.15;100573.13;5004597;28;20092;-65
2022/05/23 02:37:05;;;;;;;5.63;3.03;;;;;;;19.59;50.25;100562.78;5003949;28;20518;-64
2022/05/23 02:39:33;;;;;;;8.32;3.42;;;;;;;19.59;50.22;100557.34;5006530;28;20046;-64
2022/05/23 02:42:01;;;;;;;6.45;3.20;;;;;;;19.58;50.44;100553.00;5004569;28;20078;-65
2022/05/23 02:44:29;;;;;;;7.78;3.00;;;;;;;19.57;50.55;100550.56;5004324;28;20081;-64
2022/05/23 02:46:56;;;;;;;8.85;3.40;;;;;;;19.56;50.49;100541.56;5004521;28;20128;-65
2022/05/23 02:49:24;;;;;;;8.82;3.33;;;;;;;19.54;50.64;100529.31;5006070;28;20054;-64
2022/05/23 02:51:52;;;;;;;7.85;3.50;;;;;;;19.52;50.56;100529.63;5005450;28;20050;-64
2022/05/23 02:54:21;;;;;;;8.07;3.70;;;;;;;19.49;50.40;100521.97;5004075;28;20046;-65
2022/05/23 02:56:49;;;;;;;5.20;3.25;;;;;;;19.49;50.61;100514.63;5003925;28;20105;-64
2022/05/23 02:59:17;;;;;;;7.20;3.30;;;;;;;19.49;50.88;100509.16;5005345;28;20073;-64
2022/05/23 03:04:31;;;;;;;7.28;3.70;;;;;;;19.45;50.72;100494.50;5002815;28;20109;-64
2022/05/23 03:06:58;;;;;;;6.43;2.80;;;;;;;19.44;50.76;100481.16;5004648;28;20046;-65
2022/05/23 03:09:30;;;;;;;6.60;3.30;;;;;;;19.44;51.00;100476.50;5005922;28;20108;-65
2022/05/23 03:11:58;;;;;;;6.40;3.13;;;;;;;19.42;50.96;100472.44;5005015;28;20501;-64
2022/05/23 03:14:26;;;;;;;7.53;3.65;;;;;;;19.42;50.81;100467.00;5004202;28;20159;-64
2022/05/23 03:16:54;;;;;;;6.00;3.03;;;;;;;19.41;50.84;100462.66;5004565;28;20475;-64
2022/05/23 03:19:21;;;;;;;5.15;2.75;;;;;;;19.39;50.80;100460.22;5004265;28;20046;-64
2022/05/23 03:27:33;;;;;;;7.57;3.33;;;;;;;19.38;51.05;100441.44;4952575;29;20066;-64
2022/05/23 03:30:00;;;;;;;5.80;3.63;;;;;;;19.37;50.92;100426.19;4955583;29;20071;-64
2022/05/23 03:32:28;;;;;;;6.03;3.50;;;;;;;19.35;50.90;100421.03;4962100;29;20151;-65
2022/05/23 03:34:56;;;;;;;5.35;2.97;;;;;;;19.35;50.91;100421.03;4947217;29;20090;-65
2022/05/23 03:37:25;;;;;;;9.90;3.75;;;;;;;19.34;51.04;100405.78;4944796;29;20047;-64
2022/05/23 03:39:54;;;;;;;4.80;3.22;;;;;;;19.34;51.14;100408.50;4956825;29;20100;-64
2022/05/23 03:42:21;;;;;;;8.73;3.60;;;;;;;19.32;51.25;100397.06;4944072;29;20053;-65
2022/05/23 03:44:49;;;;;;;7.20;3.22;;;;;;;19.32;51.34;100407.97;4943412;29;20098;-64
2022/05/23 03:47:17;;;;;;;6.95;3.45;;;;;;;19.31;51.26;100409.06;4942781;29;20059;-64
2022/05/23 03:49:45;;;;;;;7.80;3.22;;;;;;;19.30;51.33;100406.66;4954387;29;20055;-64
2022/05/23 03:52:13;;;;;;;5.07;3.00;;;;;;;19.29;51.23;100402.28;4962943;29;20078;-64
2022/05/23 03:54:40;;;;;;;7.97;3.00;;;;;;;19.29;51.31;100391.41;4961207;29;20051;-64
2022/05/23 03:57:10;;;;;;;5.60;3.88;;;;;;;19.28;51.30;100393.31;4938459;29;20043;-64
2022/05/23 03:59:37;;;;;;;6.30;3.45;;;;;;;19.28;51.57;100395.22;4949950;29;20051;-64
2022/05/23 04:02:05;;;;;;;8.98;3.05;;;;;;;19.27;51.30;100390.88;4988375;28;20108;-65
2022/05/23 04:04:33;;;;;;;7.40;4.18;;;;;;;19.26;51.55;100390.06;5003511;28;20476;-64
2022/05/23 04:07:09;;;;;;;8.20;3.65;;;;;;;19.24;51.63;100389.53;5003180;28;20165;-65
2022/05/23 04:09:37;;;;;;;6.45;3.35;;;;;;;19.16;51.46;100374.66;5002621;28;20435;-64
2022/05/23 04:12:05;;;;;;;6.50;3.20;;;;;;;19.22;51.49;100386.28;5004006;28;20057;-64
2022/05/23 04:14:34;;;;;;;6.10;3.30;;;;;;;19.21;51.57;100368.31;5004419;28;20050;-65
2022/05/23 04:17:02;;;;;;;6.20;3.42;;;;;;;19.19;51.65;100367.81;5001888;28;20145;-64
2022/05/23 04:19:29;;;;;;;6.40;3.13;;;;;;;19.17;51.68;100367.28;5001476;28;20078;-65
2022/05/23 04:21:57;;;;;;;6.70;3.53;;;;;;;19.17;51.78;100370.00;5003196;28;20050;-64
2022/05/23 04:24:25;;;;;;;8.05;3.15;;;;;;;19.15;51.84;100362.13;5002740;28;20093;-64
2022/05/23 04:26:54;;;;;;;5.40;2.97;;;;;;;19.15;51.67;100364.03;5003150;28;20076;-65
2022/05/23 04:29:23;;;;;;;7.70;3.42;;;;;;;19.13;51.70;100369.78;4988265;28;20046;-65
2022/05/23 04:31:52;;;;;;;7.15;3.15;;;;;;;19.12;51.71;100376.31;5001869;28;20157;-65
2022/05/23 04:37:05;;;;;;;6.82;3.13;;;;;;;19.10;51.87;100351.28;4997254;28;20061;-65
2022/05/23 04:39:33;;;;;;;8.30;3.20;;;;;;;19.06;51.93;100352.19;5003748;28;20050;-65
2022/05/23 04:42:03;;;;;;;6.43;2.75;;;;;;;19.09;52.33;100348.84;5002689;28;20508;-65
2022/05/23 04:44:31;;;;;;;5.63;2.95;;;;;;;19.08;52.04;100352.69;5002091;28;20046;-65
2022/05/23 04:49:50;;;;;;;5.88;3.00;;;;;;;19.05;52.02;100345.13;5002153;28;20053;-64
2022/05/23 04:52:22;;;;;;;6.00;3.50;;;;;;;19.05;52.04;100342.41;5001496;28;20061;-64
2022/05/23 04:54:51;;;;;;;7.03;3.85;;;;;;;19.04;52.16;100335.34;5003614;28;20057;-65
2022/05/23 04:57:19;;;;;;;5.72;2.90;;;;;;;19.02;52.15;100335.63;4996149;28;20062;-64
2022/05/23 04:59:46;;;;;;;5.30;2.90;;;;;;;19.03;52.20;100328.25;5000537;28;20054;-65
2022/05/23 05:02:16;;;;;;;6.68;3.35;;;;;;;18.95;52.01;100324.25;5001393;28;20058;-64
2022/05/23 05:04:43;;;;;;;5.55;2.92;;;;;;;19.02;52.34;100335.63;4999008;28;20050;-65
2022/05/23 05:07:11;;;;;;;8.23;3.30;;;;;;;19.02;52.33;100337.53;5000637;28;20046;-64
2022/05/23 05:09:39;;;;;;;7.43;2.90;;;;;;;19.01;51.89;100328.56;5003419;28;20423;-65
2022/05/23 05:12:12;;;;;;;9.38;3.13;;;;;;;19.02;52.30;100315.75;5001110;28;20109;-65
2022/05/23 05:14:41;;;;;;;5.90;3.10;;;;;;;19.01;52.11;100311.41;5002549;28;20077;-64
2022/05/23 05:17:09;;;;;;;6.57;3.17;;;;;;;19.02;52.18;100302.13;5001478;28;20050;-65
2022/05/23 05:19:38;;;;;;;5.43;3.15;;;;;;;19.01;52.11;100295.88;5001098;28;20054;-64
2022/05/23 05:22:06;;;;;;;5.63;2.92;;;;;;;19.01;52.10;100295.06;5001673;28;20051;-64
2022/05/23 05:24:33;;;;;;;5.95;2.83;;;;;;;19.00;51.88;100291.53;5001930;28;20046;-63
2022/05/23 05:27:01;;;;;;;6.10;2.53;;;;;;;18.96;52.21;100287.75;5002323;28;20054;-63
2022/05/23 05:29:29;;;;;;;4.90;2.58;;;;;;;18.99;52.14;100276.28;5005691;28;20178;-64
2022/05/23 05:32:01;;;;;;;6.60;3.28;;;;;;;19.00;52.19;100285.28;5005110;28;20057;-63
2022/05/23 05:34:33;;;;;;;6.63;2.72;;;;;;;19.00;52.20;100277.09;5005474;28;20084;-65
2022/05/23 05:37:08;;;;;;;6.90;3.03;;;;;;;18.99;52.26;100273.56;5001976;28;20415;-65
2022/05/23 05:39:37;;;;;;;4.85;3.22;;;;;;;18.98;52.12;100271.13;5002781;28;20125;-63
2022/05/23 05:42:09;;;;;;;6.53;2.72;;;;;;;18.96;52.32;100265.16;5003043;28;20042;-63
2022/05/23 05:44:42;;;;;;;3.75;2.30;;;;;;;18.97;52.08;100256.69;5003677;28;20061;-62
2022/05/23 05:47:13;;;;;;;4.95;2.85;;;;;;;18.98;52.24;100261.03;4996536;28;20049;-64
2022/05/23 05:49:59;;;;;;;4.27;2.70;;;;;;;18.97;52.13;100264.06;5004715;28;20054;-64
2022/05/23 05:52:32;;;;;;;4.22;2.70;;;;;;;18.98;52.41;100243.91;5006558;28;20313;-65
2022/05/23 05:55:02;;;;;;;3.70;2.28;;;;;;;18.99;52.06;100245.53;5007054;28;20082;-64
2022/05/23 05:57:31;;;;;;;8.07;2.90;;;;;;;18.98;52.21;100252.06;5007347;28;20042;-63
2022/05/23 05:59:58;;;;;;;4.82;2.50;;;;;;;18.98;52.18;100241.97;5005881;28;20066;-64
2022/05/23 06:02:26;;;;;;;11.75;2.50;;;;;;;18.98;52.18;100252.88;5005140;28;20077;-65
2022/05/23 06:04:54;;;;;;;4.20;2.90;;;;;;;18.98;52.20;100252.06;5005740;28;20650;-63
2022/05/23 06:13:04;;;;;;;5.90;2.58;;;;;;;18.96;52.00;100227.03;5005193;28;20076;-66
2022/05/23 06:15:32;;;;;;;5.50;2.63;;;;;;;18.92;52.11;100220.56;5005022;28;20078;-65
2022/05/23 06:18:00;;;;;;;5.25;2.33;;;;;;;18.97;52.04;100223.22;5005422;28;20081;-62
2022/05/23 06:20:28;;;;;;;6.22;2.40;;;;;;;18.98;51.88;100219.38;4657201;28;10000372;-65
2022/05/23 06:22:57;;;;;;;4.30;2.70;;;;;;;18.99;51.87;100219.09;4999457;28;20632;-66
2022/05/23 06:25:26;;;;;;;3.35;2.42;;;;;;;19.00;52.01;100218.00;5002592;28;20070;-65
2022/05/23 06:27:54;;;;;;;4.80;2.30;;;;;;;18.99;52.02;100210.94;5002744;28;20073;-66
2022/05/23 06:30:23;;;;;;;6.40;2.53;;;;;;;19.02;52.30;100220.41;4991107;28;20085;-65
2022/05/23 06:32:50;;;;;;;5.03;2.33;;;;;;;19.01;52.18;100213.34;4990954;28;20108;-65
2022/05/23 06:35:19;;;;;;;4.45;2.38;;;;;;;19.02;51.93;100209.53;4999830;28;20558;-63
2022/05/23 06:37:47;;;;;;;5.00;2.28;;;;;;;19.04;52.03;100215.50;5010274;28;20145;-63
2022/05/23 06:40:16;;;;;;;4.97;2.58;;;;;;;19.05;52.07;100208.94;5000610;28;20133;-63
2022/05/23 06:42:45;;;;;;;4.55;2.53;;;;;;;19.06;51.92;100216.00;4993197;28;20108;-64
2022/05/23 06:45:13;;;;;;;4.78;2.38;;;;;;;19.07;52.09;100214.88;4996528;28;20165;-64
2022/05/23 06:47:41;;;;;;;3.38;2.35;;;;;;;19.08;52.24;100213.78;4998324;28;20054;-65
2022/05/23 06:50:10;;;;;;;4.78;2.70;;;;;;;19.08;52.08;100211.84;5001675;28;20051;-64
2022/05/23 06:52:39;;;;;;;4.80;2.22;;;;;;;19.10;52.11;100217.00;4999555;28;20078;-66
2022/05/23 06:55:08;;;;;;;4.65;2.30;;;;;;;19.12;52.19;100221.06;4999802;28;20089;-63
2022/05/23 06:57:37;;;;;;;4.32;2.78;;;;;;;19.11;52.30;100215.91;4990294;28;20110;-63
2022/05/23 07:00:09;;;;;;;6.13;2.83;;;;;;;19.13;52.21;100216.44;5000327;28;20109;-63
2022/05/23 07:02:37;;;;;;;4.97;2.08;;;;;;;19.12;52.22;100215.63;4998128;28;20117;-64
2022/05/23 07:13:22;;;;;;;3.47;1.98;;;;;;;19.15;52.20;100211.50;4999274;28;20655;-65
2022/05/23 07:15:52;;;;;;;4.50;2.15;;;;;;;19.14;52.21;100213.41;4999845;28;20074;-66
2022/05/23 07:18:21;;;;;;;4.00;2.30;;;;;;;19.10;52.47;100201.47;4996450;28;20373;-65
2022/05/23 07:20:50;;;;;;;2.92;2.13;;;;;;;19.13;52.05;100206.34;5000467;28;20085;-66
2022/05/23 07:23:17;;;;;;;3.90;2.30;;;;;;;19.13;52.26;100213.69;5000388;28;20108;-64
2022/05/23 07:25:45;;;;;;;3.08;1.95;;;;;;;19.14;52.39;100213.41;5000787;28;20070;-64
2022/05/23 07:28:14;;;;;;;5.80;2.65;;;;;;;19.14;52.34;100216.13;4999250;28;20050;-65
2022/05/23 07:30:42;;;;;;;3.40;2.10;;;;;;;19.15;52.45;100216.94;4998576;28;20050;-65
2022/05/23 07:33:12;;;;;;;4.75;2.22;;;;;;;19.14;52.48;100218.84;4998572;28;20161;-65
2022/05/23 07:35:39;;;;;;;4.53;2.63;;;;;;;19.12;52.27;100212.06;4997542;28;20054;-64
2022/05/23 07:38:09;;;;;;;6.80;2.72;;;;;;;19.17;52.55;100221.00;4999484;28;20042;-64
2022/05/23 07:40:37;;;;;;;4.40;2.17;;;;;;;19.17;52.60;100204.66;5000367;28;20061;-65
2022/05/23 07:43:05;;;;;;;5.80;2.25;;;;;;;19.18;52.72;100197.28;4997374;28;20128;-63
2022/05/23 07:45:33;;;;;;;6.72;3.05;;;;;;;19.19;52.99;100193.44;5001203;28;20414;-65
2022/05/23 07:48:01;;;;;;;5.30;2.78;;;;;;;19.21;52.86;100198.59;4999753;28;20042;-63
2022/05/23 07:50:30;;;;;;;10.40;2.78;;;;;;;19.20;52.79;100192.34;5003850;28;20054;-63
2022/05/23 08:01:14;;;;;;;5.07;2.33;;;;;;;19.26;52.97;100191.16;5000564;28;20046;-64
2022/05/23 08:03:42;;;;;;;5.57;2.40;;;;;;;19.28;53.10;100191.69;5003817;28;20054;-63
2022/05/23 08:06:11;;;;;;;7.63;3.35;;;;;;;19.29;52.92;100190.56;5004347;28;20060;-65
2022/05/23 08:08:39;;;;;;;6.40;2.85;;;;;;;19.33;53.54;100180.72;5004408;28;20078;-64
2022/05/23 08:11:09;;;;;;;4.10;2.67;;;;;;;19.33;53.31;100163.56;5002199;28;20061;-64
2022/05/23 08:13:37;;;;;;;8.07;2.80;;;;;;;19.33;53.05;100160.81;5002634;28;20050;-65
2022/05/23 08:16:06;;;;;;;6.85;2.20;;;;;;;19.32;53.33;100157.28;5005327;28;20050;-64
2022/05/23 08:18:34;;;;;;;6.30;2.50;;;;;;;19.34;53.19;100157.81;5011735;28;20046;-64
2022/05/23 08:21:02;;;;;;;4.47;2.17;;;;;;;19.35;53.11;100151.25;5007497;28;20054;-64
2022/05/23 08:23:31;;;;;;;6.00;2.50;;;;;;;19.35;53.19;100153.16;5000425;28;20548;-64
2022/05/23 08:25:59;;;;;;;9.45;2.25;;;;;;;19.35;53.18;100145.00;5004766;28;20042;-64
2022/05/23 08:28:28;;;;;;;4.03;2.05;;;;;;;19.37;53.28;100145.50;5001424;28;20061;-64
2022/05/23 08:30:57;;;;;;;6.28;2.45;;;;;;;19.38;53.16;100136.22;5001662;28;20545;-64
2022/05/23 08:33:26;;;;;;;3.83;2.30;;;;;;;19.38;53.15;100128.84;5002615;28;20046;-64
2022/05/23 08:35:54;;;;;;;5.25;2.55;;;;;;;19.39;53.38;100135.91;5012471;28;20073;-64
2022/05/23 08:38:22;;;;;;;5.05;2.80;;;;;;;19.40;53.63;100128.56;5003448;28;20046;-64
2022/05/23 08:41:02;;;;;;;6.13;2.47;;;;;;;19.33;53.39;100112.59;5003936;28;20046;-64
2022/05/23 08:43:35;;;;;;;5.63;1.98;;;;;;;19.41;53.57;100117.34;5001890;28;20047;-64
2022/05/23 08:46:04;;;;;;;7.28;2.83;;;;;;;19.42;53.86;100121.69;5003825;28;20053;-64
2022/05/23 08:48:43;;;;;;;5.30;2.50;;;;;;;19.43;53.79;100109.69;5002564;28;20093;-64
2022/05/23 08:51:15;;;;;;;8.95;2.63;;;;;;;19.44;53.68;100107.78;5003644;28;20073;-64
2022/05/23 08:53:49;;;;;;;7.97;2.42;;;;;;;19.45;53.66;100103.94;5000989;28;20077;-64
2022/05/23 08:56:24;;;;;;;5.50;2.50;;;;;;;19.46;53.88;100098.19;4999980;28;20058;-64
2022/05/23 08:58:55;;;;;;;4.78;2.50;;;;;;;19.47;53.91;100090.81;4999813;28;20073;-64
2022/05/23 09:01:25;;;;;;;5.45;2.42;;;;;;;19.48;53.77;100095.16;5002080;28;20046;-62
2022/05/23 09:03:59;;;;;;;3.13;2.13;;;;;;;19.49;54.01;100094.88;5006199;28;20365;-63
2022/05/23 09:06:31;;;;;;;4.88;2.67;;;;;;;19.50;53.97;100091.03;5003963;28;20057;-66
2022/05/23 09:09:01;;;;;;;8.25;2.53;;;;;;;19.54;53.88;100087.75;5008170;28;20069;-65
2022/05/23 09:11:34;;;;;;;5.07;2.45;;;;;;;19.55;53.94;100087.44;5006721;28;20046;-65
2022/05/23 09:14:02;;;;;;;5.13;2.75;;;;;;;19.56;53.81;100078.16;5007440;28;20081;-64
2022/05/23 09:16:33;;;;;;;9.82;3.20;;;;;;;19.58;53.97;100077.84;5006540;28;20380;-65
2022/05/23 09:19:04;;;;;;;5.30;2.50;;;;;;;19.58;53.92;100072.41;5007075;28;20050;-66
2022/05/23 09:24:18;;;;;;;5.63;2.38;;;;;;;19.61;53.87;100079.97;5005603;28;20160;-65
2022/05/23 09:26:47;;;;;;;3.70;1.90;;;;;;;19.61;53.96;100064.44;5001988;28;20050;-64
2022/05/23 09:29:15;;;;;;;5.22;2.30;;;;;;;19.61;53.98;100061.72;5005808;28;20482;-65
2022/05/23 09:31:49;;;;;;;6.15;2.40;;;;;;;19.62;54.30;100051.63;5007542;28;20086;-63
2022/05/23 09:34:33;;;;;;;4.68;2.47;;;;;;;19.64;54.14;100039.31;5007448;28;20061;-63
2022/05/23 09:37:02;;;;;;;5.75;2.72;;;;;;;19.67;54.01;100029.72;4998564;28;20058;-64
2022/05/23 09:39:31;;;;;;;5.88;2.65;;;;;;;19.71;54.27;100023.34;4998460;28;20522;-63
2022/05/23 09:47:49;;;;;;;6.45;2.70;;;;;;;19.80;53.98;100018.81;4999156;28;20073;-64
2022/05/23 09:50:35;;;;;;;8.20;2.85;;;;;;;19.81;54.32;100012.25;5001172;28;20597;-64
2022/05/23 09:53:16;;;;;;;4.38;2.38;;;;;;;19.82;54.11;100005.69;4999775;28;20629;-64
2022/05/23 09:55:45;;;;;;;9.13;2.67;;;;;;;19.84;54.39;99986.28;5002350;28;20076;-64
2022/05/23 09:58:23;;;;;;;6.20;2.15;;;;;;;19.87;54.29;99984.88;4999603;28;20050;-64
2022/05/23 10:00:58;;;;;;;4.78;2.88;;;;;;;19.90;54.46;99987.00;4998861;28;20077;-63
2022/05/23 10:03:29;;;;;;;4.68;2.30;;;;;;;19.90;54.47;99982.34;5000150;28;20630;-63
2022/05/23 10:06:09;;;;;;;4.88;2.30;;;;;;;19.96;54.33;99978.41;4999949;28;20069;-64
2022/05/23 10:08:39;;;;;;;3.92;2.30;;;;;;;20.00;54.22;99986.78;5000590;28;20046;-63
2022/05/23 10:11:19;;;;;;;4.90;2.53;;;;;;;20.05;54.34;99987.47;5002858;28;20074;-64
2022/05/23 10:13:54;;;;;;;5.32;2.50;;;;;;;20.05;54.21;99976.56;5000097;28;20054;-63
2022/05/23 10:16:26;;;;;;;4.68;2.30;;;;;;;20.15;54.15;99983.72;4999747;28;20042;-64
2022/05/23 10:19:00;;;;;;;5.75;2.38;;;;;;;20.19;54.46;99981.19;5000736;28;20062;-63
2022/05/23 10:21:33;;;;;;;5.88;2.10;;;;;;;20.23;54.33;99987.66;4997711;28;20546;-62
2022/05/23 10:24:07;;;;;;;5.40;1.80;;;;;;;20.27;54.56;99991.38;5000441;28;20046;-63
2022/05/23 10:26:43;;;;;;;5.07;2.03;;;;;;;20.30;54.25;99974.38;5006812;28;20077;-63
2022/05/23 10:29:21;;;;;;;4.10;2.15;;;;;;;20.35;54.36;99974.28;4997509;28;20046;-64
2022/05/23 10:31:53;;;;;;;8.25;2.25;;;;;;;20.37;54.37;99961.13;4999198;28;20054;-63
2022/05/23 10:34:43;;;;;;;4.80;2.08;;;;;;;20.43;54.32;99968.09;5001679;28;20046;-63
2022/05/23 10:37:17;;;;;;;7.53;2.50;;;;;;;20.48;54.41;99965.25;5000857;28;20070;-63
2022/05/23 10:42:39;;;;;;;6.93;2.90;;;;;;;20.57;54.60;99941.56;4995999;28;20084;-63
2022/05/23 10:45:19;;;;;;;3.20;1.77;;;;;;;20.61;54.57;99931.63;4999382;28;20046;-64
2022/05/23 10:48:11;;;;;;;6.35;2.25;;;;;;;20.65;54.34;99921.72;5001165;28;20057;-65
2022/05/23 10:50:49;;;;;;;8.18;2.90;;;;;;;20.72;54.34;99927.53;4999966;28;20530;-64
2022/05/23 10:53:37;;;;;;;6.75;2.22;;;;;;;20.79;54.57;99919.72;4997195;28;20120;-63
2022/05/23 10:56:26;;;;;;;4.22;2.30;;;;;;;20.85;54.44;99911.34;4998678;28;20108;-64
2022/05/23 10:58:59;;;;;;;6.65;2.67;;;;;;;20.89;54.36;99894.03;4991471;28;20077;-63
2022/05/23 11:01:51;;;;;;;4.18;2.10;;;;;;;20.94;54.27;99887.63;5011559;28;20057;-63
2022/05/23 11:04:32;;;;;;;5.88;2.55;;;;;;;20.95;54.25;99887.31;5003544;28;20085;-63
2022/05/23 11:07:11;;;;;;;8.73;2.28;;;;;;;21.04;54.09;99884.63;5003369;28;20070;-63
2022/05/23 11:09:48;;;;;;;6.32;2.05;;;;;;;21.08;54.12;99864.53;5002321;28;20074;-64
2022/05/23 11:12:25;;;;;;;4.65;2.03;;;;;;;21.12;53.99;99845.59;5002509;28;20081;-63
2022/05/23 11:15:09;;;;;;;4.82;1.90;;;;;;;21.17;53.76;99845.44;5007312;28;20050;-63
2022/05/23 11:17:48;;;;;;;6.13;2.13;;;;;;;21.24;53.78;99839.56;5003306;28;20419;-64
2022/05/23 11:20:22;;;;;;;5.18;1.80;;;;;;;21.27;54.12;99831.53;5002743;28;20434;-63
2022/05/23 11:22:58;;;;;;;4.35;1.98;;;;;;;21.32;53.71;99828.66;5004012;28;20431;-63
2022/05/23 11:25:29;;;;;;;4.53;2.10;;;;;;;21.41;54.17;99831.41;5002577;28;20463;-64
2022/05/23 11:33:54;;;;;;;5.93;1.73;;;;;;;21.61;54.03;99816.31;4979098;28;20058;-65
2022/05/23 11:36:33;;;;;;;5.18;2.08;;;;;;;21.66;54.08;99816.97;4976841;28;20078;-65
2022/05/23 11:39:01;;;;;;;4.18;1.90;;;;;;;21.64;54.02;99794.59;4977287;28;20181;-64
2022/05/23 11:41:33;;;;;;;3.50;1.67;;;;;;;21.78;54.38;99805.38;4974045;28;20520;-63
2022/05/23 11:44:15;;;;;;;2.50;1.65;;;;;;;21.84;53.98;99797.81;4972762;28;20046;-65
2022/05/23 11:47:18;;;;;;;2.67;1.48;;;;;;;21.90;54.00;99793.78;4966862;28;20058;-65
2022/05/23 11:49:49;;;;;;;3.65;1.85;;;;;;;21.94;53.86;99786.56;4957722;29;20066;-64
2022/05/23 11:52:25;;;;;;;2.83;1.80;;;;;;;21.92;53.73;99773.19;4956244;29;20055;-65
2022/05/23 11:54:53;;;;;;;3.60;1.50;;;;;;;22.01;53.68;99786.88;4958092;29;20047;-64
2022/05/23 11:57:46;;;;;;;5.50;2.08;;;;;;;22.07;53.65;99774.66;4956639;29;20167;-65
2022/05/23 12:00:38;;;;;;;4.03;1.90;;;;;;;22.02;53.15;99761.94;4950176;29;20047;-66
2022/05/23 12:03:12;;;;;;;5.47;1.73;;;;;;;22.10;53.18;99768.53;4958727;29;20061;-67
2022/05/23 12:05:42;;;;;;;2.58;1.38;;;;;;;22.16;52.87;99783.66;4959190;29;20047;-67
2022/05/23 12:08:33;;;;;;;3.30;1.80;;;;;;;22.20;52.63;99775.59;4961836;28;20051;-66
2022/05/23 12:11:02;;;;;;;5.00;1.90;;;;;;;22.23;52.80;99766.75;4956387;28;20071;-67
2022/05/23 12:13:40;;;;;;;4.82;2.35;;;;;;;22.25;53.20;99769.94;4958752;28;20059;-66
2022/05/23 12:16:46;;;;;;;3.08;1.55;;;;;;;22.22;52.79;99759.66;4956906;28;20066;-67
2022/05/23 12:19:36;;;;;;;4.80;1.80;;;;;;;22.28;52.59;99763.81;4957072;28;20059;-65
2022/05/23 12:22:22;;;;;;;3.38;1.40;;;;;;;22.35;52.85;99764.94;4956299;28;20397;-65
2022/05/23 12:25:03;;;;;;;3.03;1.83;;;;;;;22.35;52.79;99767.66;4955319;28;20101;-66
2022/05/23 12:27:34;;;;;;;3.20;1.95;;;;;;;22.37;52.74;99761.88;4992100;28;20057;-65
2022/05/23 12:30:38;;;;;;;2.67;1.67;;;;;;;22.52;53.22;99757.78;4998269;28;20392;-66
2022/05/23 12:33:10;;;;;;;4.68;2.30;;;;;;;22.52;52.74;99749.56;4992146;28;20491;-66
2022/05/23 12:35:52;;;;;;;2.75;1.67;;;;;;;22.53;52.63;99746.50;4993618;28;20380;-66
2022/05/23 12:38:45;;;;;;;5.40;2.00;;;;;;;22.54;52.73;99741.81;4997170;28;20054;-67
2022/05/23 12:41:24;;;;;;;3.90;1.67;;;;;;;22.56;53.46;99723.91;4978722;28;20483;-66
2022/05/23 12:44:23;;;;;;;3.42;1.65;;;;;;;22.55;52.73;99726.97;4998470;28;20069;-64
2022/05/23 12:47:01;;;;;;;5.07;1.83;;;;;;;22.57;52.68;99722.78;4998212;28;20144;-66
2022/05/23 12:49:46;;;;;;;5.35;1.83;;;;;;;22.61;53.53;99718.25;4999934;28;20084;-65
2022/05/23 12:52:35;;;;;;;4.00;1.42;;;;;;;22.59;52.98;99712.31;5001967;28;20077;-66